Terminal Aerodrome Forecast
Issued by NWS

Home | Current Version | Previous Version | Text Only | Print | Product List | Glossary On
Versions: 1 2 3 4 5 6 7 8 9 10 11 12 13 14 15 16 17 18 19 20 21 22 23 24 25 26
799
FTUS41 KOKX 050830 AAA
TAFGON
TAF AMD
KGON 050830Z 0509/0606 VRB03KT P6SM FEW030 BKN150
     FM051000 13005KT 6SM -RASN SCT030 OVC060
     FM051200 15005KT 4SM -RA SCT010 BKN020
      TEMPO 0512/0514 BKN010
     FM051400 18007KT 4SM -RA BKN010 OVC020
     FM051700 21008KT 6SM BR BKN015 BKN030
     FM051900 27011KT P6SM SCT030 SCT250
     FM052200 30008KT P6SM SKC=

USA.gov is the U.S. government's official web portal to all federal, state and local government web resources and services.